Time;durP1;ratioP1;P1;durP2;ratioP2;P2;SDS_P1;SDS_P2;PMS_P1;PMS_P2;Temp;Humidity;BMP_temperature;BMP_pressure;BME280_temperature;BME280_humidity;BME280_pressure;Samples;Min_cycle;Max_cycle;Signal;HPM_P1;HPM_P2
2022/12/25 00:00:54;;;;;;;;;;;;;;;;;;5036465;28;20031;-60
2022/12/25 00:03:20;;;;;;;;;;;;;;;;;;5020994;28;19921;-61
2022/12/25 00:05:46;;;;;;;;;;;;;;;;;;5021491;28;20247;-61
2022/12/25 00:08:12;;;;;;;;;;;;;;;;;;5017829;28;20829;-61
2022/12/25 00:10:38;;;;;;;;;;;;;;;;;;5018154;28;19927;-60
2022/12/25 00:13:04;;;;;;;;;;;;;;;;;;5018054;28;20411;-60
2022/12/25 00:15:29;;;;;;;;;;;;;;;;;;5021598;28;19921;-61
2022/12/25 00:17:55;;;;;;;;;;;;;;;;;;5021488;28;20426;-60
2022/12/25 00:20:21;;;;;;;;;;;;;;;;;;5015093;28;20047;-60
2022/12/25 00:22:47;;;;;;;;;;;;;;;;;;5021092;28;19991;-61
2022/12/25 00:25:13;;;;;;;;;;;;;;;;;;5016679;28;20620;-60
2022/12/25 00:27:40;;;;;;;;;;;;;;;;;;5019032;28;19975;-61
2022/12/25 00:30:06;;;;;;;;;;;;;;;;;;5020146;28;19921;-60
2022/12/25 00:32:32;;;;;;;;;;;;;;;;;;5009691;28;20620;-61
2022/12/25 00:34:58;;;;;;;;;;;;;;;;;;5015115;28;19921;-60
2022/12/25 00:37:24;;;;;;;;;;;;;;;;;;5017337;28;19971;-70
2022/12/25 00:39:50;;;;;;;;;;;;;;;;;;5015473;28;19921;-63
2022/12/25 00:42:19;;;;;;;;;;;;;;;;;;5017645;28;20730;-61
2022/12/25 00:44:45;;;;;;;;;;;;;;;;;;5019002;28;19928;-60
2022/12/25 00:47:11;;;;;;;;;;;;;;;;;;5016203;28;19932;-60
2022/12/25 00:49:37;;;;;;;;;;;;;;;;;;5020183;28;19921;-60
2022/12/25 00:52:03;;;;;;;;;;;;;;;;;;5015516;28;20371;-61
2022/12/25 00:54:28;;;;;;;;;;;;;;;;;;5032406;28;19921;-61
2022/12/25 00:56:54;;;;;;;;;;;;;;;;;;5017301;28;19925;-61
2022/12/25 00:59:20;;;;;;;;;;;;;;;;;;5012569;28;20415;-65
2022/12/25 01:01:46;;;;;;;;;;;;;;;;;;5015571;28;19926;-61
2022/12/25 01:04:12;;;;;;;;;;;;;;;;;;5018299;28;19945;-61
2022/12/25 01:06:38;;;;;;;;;;;;;;;;;;5014478;28;19936;-61
2022/12/25 01:11:49;;;;;;;;;;;;;;;;;;5021171;28;20445;-61
2022/12/25 01:14:15;;;;;;;;;;;;;;;;;;5019889;28;19960;-61
2022/12/25 01:16:41;;;;;;;;;;;;;;;;;;5019084;28;19937;-61
2022/12/25 01:19:06;;;;;;;;;;;;;;;;;;5022545;28;19921;-61
2022/12/25 01:21:32;;;;;;;;;;;;;;;;;;5022423;28;20043;-60
2022/12/25 01:23:58;;;;;;;;;;;;;;;;;;5019290;28;20024;-61
2022/12/25 01:26:24;;;;;;;;;;;;;;;;;;5019772;28;19968;-61
2022/12/25 01:28:50;;;;;;;;;;;;;;;;;;5020088;28;20483;-61
2022/12/25 01:31:16;;;;;;;;;;;;;;;;;;5023195;28;20450;-61
2022/12/25 01:33:42;;;;;;;;;;;;;;;;;;5016028;28;20826;-61
2022/12/25 01:36:08;;;;;;;;;;;;;;;;;;5020794;28;19925;-61
2022/12/25 01:38:34;;;;;;;;;;;;;;;;;;5018401;28;19921;-61
2022/12/25 01:41:00;;;;;;;;;;;;;;;;;;5037398;28;19974;-60
2022/12/25 01:43:26;;;;;;;;;;;;;;;;;;5023032;28;19925;-61
2022/12/25 01:45:52;;;;;;;;;;;;;;;;;;5022145;28;19932;-60
2022/12/25 01:48:18;;;;;;;;;;;;;;;;;;5022949;28;19921;-60
2022/12/25 01:50:44;;;;;;;;;;;;;;;;;;5039799;28;19921;-61
2022/12/25 01:53:10;;;;;;;;;;;;;;;;;;5022273;28;19984;-61
2022/12/25 01:55:36;;;;;;;;;;;;;;;;;;5023665;28;20028;-61
2022/12/25 01:58:02;;;;;;;;;;;;;;;;;;5023339;28;19928;-60
2022/12/25 02:00:28;;;;;;;;;;;;;;;;;;5040752;28;19925;-60
2022/12/25 02:02:54;;;;;;;;;;;;;;;;;;5026337;28;19921;-61
2022/12/25 02:05:20;;;;;;;;;;;;;;;;;;5027421;28;20319;-60
2022/12/25 02:07:45;;;;;;;;;;;;;;;;;;5020655;28;20376;-61
2022/12/25 02:10:11;;;;;;;;;;;;;;;;;;5021946;28;20007;-61
2022/12/25 02:12:37;;;;;;;;;;;;;;;;;;5021507;28;20140;-61
2022/12/25 02:15:03;;;;;;;;;;;;;;;;;;5024262;28;20427;-61
2022/12/25 02:17:29;;;;;;;;;;;;;;;;;;5026330;28;19925;-60
2022/12/25 02:19:55;;;;;;;;;;;;;;;;;;5025691;28;19929;-60
2022/12/25 02:22:21;;;;;;;;;;;;;;;;;;5024997;28;19948;-61
2022/12/25 02:24:47;;;;;;;;;;;;;;;;;;5024763;28;20494;-61
2022/12/25 02:27:13;;;;;;;;;;;;;;;;;;5025338;28;20012;-61
2022/12/25 02:29:39;;;;;;;;;;;;;;;;;;5025999;28;19921;-61
2022/12/25 02:32:05;;;;;;;;;;;;;;;;;;5025717;28;19975;-61
2022/12/25 02:34:31;;;;;;;;;;;;;;;;;;5025426;28;20396;-62
2022/12/25 02:36:57;;;;;;;;;;;;;;;;;;5026005;28;20346;-61
2022/12/25 02:42:07;;;;;;;;;;;;;;;;;;5024754;28;19921;-61
2022/12/25 03:06:41;;;;;;;;;;;;;;;;;;5022994;28;19968;-62
2022/12/25 03:06:48;;;;;;;;;;;;;;;;;;5023843;28;20019;-62
2022/12/25 03:11:58;;;;;;;;;;;;;;;;;;5024838;28;19925;-61
2022/12/25 03:17:08;;;;;;;;;;;;;;;;;;5025309;28;20008;-60
2022/12/25 03:27:48;;;;;;;;;;;;;;;;;;5023317;28;19921;-61
2022/12/25 03:33:04;;;;;;;;;;;;;;;;;;5025163;28;19996;-61
2022/12/25 03:35:30;;;;;;;;;;;;;;;;;;5024146;28;19921;-61
2022/12/25 04:38:21;;;;;;;;;;;;;;;;;;5020671;28;20608;-57
2022/12/25 04:40:47;;;;;;;;;;;;;;;;;;5020956;28;19921;-57
2022/12/25 04:43:13;;;;;;;;;;;;;;;;;;5022445;28;20393;-57
2022/12/25 04:45:39;;;;;;;;;;;;;;;;;;5017758;28;20619;-58
2022/12/25 04:48:04;;;;;;;;;;;;;;;;;;5022273;28;19921;-57
2022/12/25 04:50:30;;;;;;;;;;;;;;;;;;5023378;28;20418;-57
2022/12/25 04:52:56;;;;;;;;;;;;;;;;;;5021641;28;19948;-57
2022/12/25 04:55:22;;;;;;;;;;;;;;;;;;5019539;28;19926;-57
2022/12/25 04:57:48;;;;;;;;;;;;;;;;;;5023653;28;19979;-57
2022/12/25 05:00:14;;;;;;;;;;;;;;;;;;5021900;28;20966;-57
2022/12/25 05:02:40;;;;;;;;;;;;;;;;;;5022383;28;20019;-57
2022/12/25 05:05:06;;;;;;;;;;;;;;;;;;5025409;28;20802;-57
2022/12/25 05:07:32;;;;;;;;;;;;;;;;;;5055737;28;20403;-57
2022/12/25 05:09:58;;;;;;;;;;;;;;;;;;5022893;28;19936;-57
2022/12/25 05:12:24;;;;;;;;;;;;;;;;;;5023380;28;19964;-57
2022/12/25 05:14:50;;;;;;;;;;;;;;;;;;5021656;28;19980;-57
2022/12/25 05:17:16;;;;;;;;;;;;;;;;;;5022680;28;20451;-57
2022/12/25 05:19:42;;;;;;;;;;;;;;;;;;5022194;28;19999;-57
2022/12/25 05:22:08;;;;;;;;;;;;;;;;;;5024738;28;19925;-58
2022/12/25 05:24:34;;;;;;;;;;;;;;;;;;5022447;28;19921;-57
2022/12/25 05:26:59;;;;;;;;;;;;;;;;;;5023787;28;19928;-57
2022/12/25 05:29:25;;;;;;;;;;;;;;;;;;5021652;28;19980;-57
2022/12/25 05:31:51;;;;;;;;;;;;;;;;;;5021155;28;20003;-57
2022/12/25 05:34:17;;;;;;;;;;;;;;;;;;5025959;28;20399;-57
2022/12/25 05:36:43;;;;;;;;;;;;;;;;;;5027846;28;19927;-58
2022/12/25 05:39:09;;;;;;;;;;;;;;;;;;5025513;28;19921;-57
2022/12/25 05:41:35;;;;;;;;;;;;;;;;;;5024427;28;19924;-57
2022/12/25 05:44:01;;;;;;;;;;;;;;;;;;5023572;28;19947;-57
2022/12/25 05:46:27;;;;;;;;;;;;;;;;;;5023347;28;20448;-57
2022/12/25 05:48:53;;;;;;;;;;;;;;;;;;5025679;28;20407;-57
2022/12/25 05:51:19;;;;;;;;;;;;;;;;;;5024306;28;19927;-60
2022/12/25 05:53:45;;;;;;;;;;;;;;;;;;5026823;28;19921;-57
2022/12/25 05:56:10;;;;;;;;;;;;;;;;;;5025702;28;19921;-57
2022/12/25 05:58:36;;;;;;;;;;;;;;;;;;5023891;28;19925;-57
2022/12/25 06:01:02;;;;;;;;;;;;;;;;;;5023768;28;19925;-58
2022/12/25 06:03:28;;;;;;;;;;;;;;;;;;5026069;28;20830;-57
2022/12/25 06:05:54;;;;;;;;;;;;;;;;;;5026643;28;20388;-58
2022/12/25 06:08:20;;;;;;;;;;;;;;;;;;5023339;28;19975;-57
2022/12/25 06:10:46;;;;;;;;;;;;;;;;;;5020290;28;20562;-57
2022/12/25 06:13:12;;;;;;;;;;;;;;;;;;5026439;28;19928;-57
2022/12/25 06:15:38;;;;;;;;;;;;;;;;;;5025608;28;20311;-57
2022/12/25 06:18:04;;;;;;;;;;;;;;;;;;5022160;28;19928;-57
2022/12/25 06:20:30;;;;;;;;;;;;;;;;;;5025358;28;19925;-57
2022/12/25 06:22:56;;;;;;;;;;;;;;;;;;5026253;28;19921;-58
2022/12/25 06:25:21;;;;;;;;;;;;;;;;;;5024185;28;19952;-57
2022/12/25 06:27:47;;;;;;;;;;;;;;;;;;5023126;28;19922;-57
2022/12/25 06:30:13;;;;;;;;;;;;;;;;;;5025657;28;19976;-57
2022/12/25 06:32:39;;;;;;;;;;;;;;;;;;5025119;28;19932;-57
2022/12/25 06:35:05;;;;;;;;;;;;;;;;;;5025746;28;19928;-57
2022/12/25 06:37:31;;;;;;;;;;;;;;;;;;5026892;28;19921;-57
2022/12/25 06:39:57;;;;;;;;;;;;;;;;;;5024002;28;19925;-57
2022/12/25 06:42:23;;;;;;;;;;;;;;;;;;5024246;28;20012;-57
2022/12/25 06:44:49;;;;;;;;;;;;;;;;;;5023626;28;20395;-57
2022/12/25 06:47:15;;;;;;;;;;;;;;;;;;5025187;28;19968;-57
2022/12/25 06:49:41;;;;;;;;;;;;;;;;;;5024163;28;19925;-57
2022/12/25 06:52:07;;;;;;;;;;;;;;;;;;5025251;28;19921;-57
2022/12/25 06:54:33;;;;;;;;;;;;;;;;;;5024409;28;20497;-57
2022/12/25 06:56:59;;;;;;;;;;;;;;;;;;5024649;28;19922;-57
2022/12/25 06:59:25;;;;;;;;;;;;;;;;;;5022457;28;19933;-57
2022/12/25 07:01:51;;;;;;;;;;;;;;;;;;5023887;28;19921;-57
2022/12/25 07:04:17;;;;;;;;;;;;;;;;;;5024933;28;19971;-57
2022/12/25 07:06:43;;;;;;;;;;;;;;;;;;5026390;28;19927;-57
2022/12/25 07:09:09;;;;;;;;;;;;;;;;;;5026128;28;19968;-57
2022/12/25 07:11:35;;;;;;;;;;;;;;;;;;5024635;28;20051;-57
2022/12/25 07:14:00;;;;;;;;;;;;;;;;;;5024705;28;19921;-57
2022/12/25 07:16:26;;;;;;;;;;;;;;;;;;5024557;28;20445;-57
2022/12/25 07:18:52;;;;;;;;;;;;;;;;;;5023961;28;19929;-57
2022/12/25 07:21:18;;;;;;;;;;;;;;;;;;5022458;28;21200;-63
2022/12/25 07:23:44;;;;;;;;;;;;;;;;;;5019712;28;20006;-57
2022/12/25 07:26:10;;;;;;;;;;;;;;;;;;5023494;28;19928;-57
2022/12/25 07:28:36;;;;;;;;;;;;;;;;;;5025289;28;19932;-57
2022/12/25 07:31:02;;;;;;;;;;;;;;;;;;5038633;28;20339;-57
2022/12/25 07:33:28;;;;;;;;;;;;;;;;;;5023472;28;19921;-57
2022/12/25 07:35:54;;;;;;;;;;;;;;;;;;5025791;28;19921;-57
2022/12/25 07:38:20;;;;;;;;;;;;;;;;;;5022898;28;20391;-57
2022/12/25 07:40:46;;;;;;;;;;;;;;;;;;5022182;28;19931;-57
2022/12/25 07:43:11;;;;;;;;;;;;;;;;;;5023901;28;19921;-57
2022/12/25 07:45:38;;;;;;;;;;;;;;;;;;5024549;28;19921;-57
2022/12/25 07:48:03;;;;;;;;;;;;;;;;;;5023852;28;19972;-57
2022/12/25 07:50:29;;;;;;;;;;;;;;;;;;5022411;28;19921;-57
2022/12/25 07:52:55;;;;;;;;;;;;;;;;;;5023053;28;19943;-57
2022/12/25 07:55:21;;;;;;;;;;;;;;;;;;5023258;28;20300;-57
2022/12/25 07:57:47;;;;;;;;;;;;;;;;;;5024056;28;19925;-61
2022/12/25 08:00:13;;;;;;;;;;;;;;;;;;5019330;28;19925;-61
2022/12/25 08:02:39;;;;;;;;;;;;;;;;;;5022088;28;19928;-61
2022/12/25 08:05:05;;;;;;;;;;;;;;;;;;5021220;28;19964;-61
2022/12/25 08:07:31;;;;;;;;;;;;;;;;;;5022270;28;20449;-61
2022/12/25 08:09:57;;;;;;;;;;;;;;;;;;5021320;28;20360;-60
2022/12/25 08:12:23;;;;;;;;;;;;;;;;;;5024952;28;20376;-69
2022/12/25 08:14:48;;;;;;;;;;;;;;;;;;5021865;28;20359;-71
2022/12/25 08:17:14;;;;;;;;;;;;;;;;;;5052499;28;20548;-62
2022/12/25 08:19:40;;;;;;;;;;;;;;;;;;5019218;28;19921;-61
2022/12/25 08:22:06;;;;;;;;;;;;;;;;;;5016915;28;19932;-60
2022/12/25 08:24:32;;;;;;;;;;;;;;;;;;5013665;28;19926;-60
2022/12/25 08:26:58;;;;;;;;;;;;;;;;;;5017809;28;20395;-61
2022/12/25 08:29:24;;;;;;;;;;;;;;;;;;5020634;28;19921;-60
2022/12/25 08:31:50;;;;;;;;;;;;;;;;;;5020197;28;19921;-61
2022/12/25 08:34:16;;;;;;;;;;;;;;;;;;5020172;28;19928;-60
2022/12/25 08:36:42;;;;;;;;;;;;;;;;;;5021604;28;20248;-61
2022/12/25 08:39:08;;;;;;;;;;;;;;;;;;5023832;28;20012;-61
2022/12/25 08:41:37;;;;;;;;;;;;;;;;;;5022564;28;20407;-61
2022/12/25 08:44:03;;;;;;;;;;;;;;;;;;5024857;28;19921;-61
2022/12/25 08:46:29;;;;;;;;;;;;;;;;;;5023571;28;19925;-61
2022/12/25 08:48:55;;;;;;;;;;;;;;;;;;5021461;28;19968;-62
2022/12/25 08:51:21;;;;;;;;;;;;;;;;;;5023332;28;19943;-62
2022/12/25 08:53:47;;;;;;;;;;;;;;;;;;5020514;28;20399;-62
2022/12/25 08:56:13;;;;;;;;;;;;;;;;;;5020541;28;20395;-62
2022/12/25 08:58:39;;;;;;;;;;;;;;;;;;5021239;28;19925;-62
2022/12/25 09:01:05;;;;;;;;;;;;;;;;;;5019459;28;19928;-62
2022/12/25 09:03:31;;;;;;;;;;;;;;;;;;5017671;28;19928;-58
2022/12/25 09:05:57;;;;;;;;;;;;;;;;;;5018739;28;19932;-58
2022/12/25 09:08:23;;;;;;;;;;;;;;;;;;5018013;28;20054;-58
2022/12/25 09:10:49;;;;;;;;;;;;;;;;;;5021937;28;20065;-59
2022/12/25 09:13:15;;;;;;;;;;;;;;;;;;5021652;28;19927;-58
2022/12/25 09:15:40;;;;;;;;;;;;;;;;;;5023619;28;19912;-58
2022/12/25 09:18:06;;;;;;;;;;;;;;;;;;5022294;28;20419;-58
2022/12/25 09:20:32;;;;;;;;;;;;;;;;;;5022588;28;19947;-59
2022/12/25 09:22:58;;;;;;;;;;;;;;;;;;5021564;28;22157;-59
2022/12/25 09:25:24;;;;;;;;;;;;;;;;;;5022732;28;19925;-60
2022/12/25 09:27:50;;;;;;;;;;;;;;;;;;5018399;28;20413;-58
2022/12/25 09:30:16;;;;;;;;;;;;;;;;;;5022979;28;19928;-58
2022/12/25 09:32:42;;;;;;;;;;;;;;;;;;5019692;28;20418;-59
2022/12/25 09:35:08;;;;;;;;;;;;;;;;;;5022439;28;19948;-58
2022/12/25 09:37:34;;;;;;;;;;;;;;;;;;5012875;28;20510;-57
2022/12/25 09:40:00;;;;;;;;;;;;;;;;;;5001193;28;21172;-57
2022/12/25 09:42:27;;;;;;;;;;;;;;;;;;5004924;28;19948;-56
2022/12/25 09:44:53;;;;;;;;;;;;;;;;;;5035706;28;19932;-56
2022/12/25 09:47:19;;;;;;;;;;;;;;;;;;5020567;28;19952;-56
2022/12/25 09:49:45;;;;;;;;;;;;;;;;;;5017468;28;20738;-57
2022/12/25 09:52:11;;;;;;;;;;;;;;;;;;5018054;28;20534;-56
2022/12/25 09:54:36;;;;;;;;;;;;;;;;;;5015429;28;20012;-57
2022/12/25 09:57:02;;;;;;;;;;;;;;;;;;5021506;28;19921;-57
2022/12/25 09:59:28;;;;;;;;;;;;;;;;;;5017925;28;19935;-57
2022/12/25 10:01:54;;;;;;;;;;;;;;;;;;5017474;28;19921;-56
2022/12/25 10:04:20;;;;;;;;;;;;;;;;;;5010807;28;19925;-57
2022/12/25 10:06:46;;;;;;;;;;;;;;;;;;5017618;28;19975;-57
2022/12/25 10:09:12;;;;;;;;;;;;;;;;;;5014874;28;20373;-57
2022/12/25 10:11:38;;;;;;;;;;;;;;;;;;5016970;28;19920;-57
2022/12/25 10:14:04;;;;;;;;;;;;;;;;;;5017410;28;19924;-56
2022/12/25 10:16:30;;;;;;;;;;;;;;;;;;5016142;28;20418;-61
2022/12/25 10:18:56;;;;;;;;;;;;;;;;;;5019985;28;19971;-57
2022/12/25 10:21:22;;;;;;;;;;;;;;;;;;5020088;28;19925;-56
2022/12/25 10:23:48;;;;;;;;;;;;;;;;;;5018899;28;19935;-57
2022/12/25 10:26:14;;;;;;;;;;;;;;;;;;5021709;28;19967;-57
2022/12/25 10:28:40;;;;;;;;;;;;;;;;;;5022443;28;20063;-56
2022/12/25 10:31:06;;;;;;;;;;;;;;;;;;5025294;28;19952;-56
2022/12/25 10:33:32;;;;;;;;;;;;;;;;;;5025082;28;19925;-57
2022/12/25 10:35:58;;;;;;;;;;;;;;;;;;5021158;28;19921;-57
2022/12/25 10:38:24;;;;;;;;;;;;;;;;;;5021648;28;19921;-57
2022/12/25 10:40:50;;;;;;;;;;;;;;;;;;5018382;28;21132;-57
2022/12/25 10:43:16;;;;;;;;;;;;;;;;;;5024850;28;20067;-57
2022/12/25 10:45:42;;;;;;;;;;;;;;;;;;5023172;28;19948;-57
2022/12/25 10:48:08;;;;;;;;;;;;;;;;;;5021613;28;19926;-56
2022/12/25 10:50:34;;;;;;;;;;;;;;;;;;5010116;28;20303;-57
2022/12/25 10:52:59;;;;;;;;;;;;;;;;;;5018360;28;20000;-57
2022/12/25 10:55:25;;;;;;;;;;;;;;;;;;5016869;28;20605;-56
2022/12/25 10:57:51;;;;;;;;;;;;;;;;;;5019008;28;20471;-56
2022/12/25 11:00:17;;;;;;;;;;;;;;;;;;5019909;28;20431;-58
2022/12/25 11:02:43;;;;;;;;;;;;;;;;;;5025471;28;20363;-56
2022/12/25 11:05:09;;;;;;;;;;;;;;;;;;5024278;28;19925;-58
2022/12/25 11:07:45;;;;;;;;;;;;;;;;;;5024023;28;20963;-57
2022/12/25 11:10:11;;;;;;;;;;;;;;;;;;5023065;28;20423;-56
2022/12/25 11:12:37;;;;;;;;;;;;;;;;;;5024660;28;19925;-56
2022/12/25 11:15:03;;;;;;;;;;;;;;;;;;5025477;28;19947;-57
2022/12/25 11:17:29;;;;;;;;;;;;;;;;;;5025450;28;20415;-56
2022/12/25 11:19:55;;;;;;;;;;;;;;;;;;5023803;28;19929;-56
2022/12/25 11:22:20;;;;;;;;;;;;;;;;;;5025971;28;19926;-56
2022/12/25 11:24:46;;;;;;;;;;;;;;;;;;5023489;28;19929;-56
2022/12/25 11:27:12;;;;;;;;;;;;;;;;;;5026394;28;19925;-62
2022/12/25 11:29:38;;;;;;;;;;;;;;;;;;5025894;28;19928;-56
2022/12/25 11:32:04;;;;;;;;;;;;;;;;;;5024119;28;19955;-58
2022/12/25 11:34:30;;;;;;;;;;;;;;;;;;5023374;28;19921;-56
2022/12/25 11:36:56;;;;;;;;;;;;;;;;;;5025778;28;20165;-56
2022/12/25 11:39:22;;;;;;;;;;;;;;;;;;5025941;28;21116;-56
2022/12/25 11:41:48;;;;;;;;;;;;;;;;;;5023996;28;20394;-57
2022/12/25 11:44:14;;;;;;;;;;;;;;;;;;5024589;28;19968;-56
2022/12/25 11:46:40;;;;;;;;;;;;;;;;;;5024282;28;19921;-57
2022/12/25 11:49:07;;;;;;;;;;;;;;;;;;5026157;28;19948;-56
2022/12/25 11:51:33;;;;;;;;;;;;;;;;;;5039306;28;20369;-59
2022/12/25 11:53:59;;;;;;;;;;;;;;;;;;5025245;28;20422;-57
2022/12/25 11:56:25;;;;;;;;;;;;;;;;;;5024765;28;20328;-56
2022/12/25 11:58:51;;;;;;;;;;;;;;;;;;5023587;28;20535;-56
2022/12/25 12:01:16;;;;;;;;;;;;;;;;;;5024029;28;19929;-56
2022/12/25 12:03:42;;;;;;;;;;;;;;;;;;5025826;28;19925;-57
2022/12/25 12:06:08;;;;;;;;;;;;;;;;;;5025231;28;20473;-57
2022/12/25 12:08:34;;;;;;;;;;;;;;;;;;5023874;28;19921;-57
2022/12/25 12:11:14;;;;;;;;;;;;;;;;;;5025513;28;19925;-57
2022/12/25 12:13:40;;;;;;;;;;;;;;;;;;5024662;28;19921;-56
2022/12/25 12:16:07;;;;;;;;;;;;;;;;;;5024212;28;19921;-58
2022/12/25 12:18:33;;;;;;;;;;;;;;;;;;5023807;28;19920;-56
2022/12/25 12:20:59;;;;;;;;;;;;;;;;;;5025588;28;19928;-57
2022/12/25 12:23:25;;;;;;;;;;;;;;;;;;5023013;28;20389;-56
2022/12/25 12:25:51;;;;;;;;;;;;;;;;;;5024529;28;19983;-57
2022/12/25 12:28:17;;;;;;;;;;;;;;;;;;5025935;28;20478;-56
2022/12/25 12:30:43;;;;;;;;;;;;;;;;;;5022579;28;20318;-56
2022/12/25 12:33:09;;;;;;;;;;;;;;;;;;5024738;28;19921;-56
2022/12/25 12:35:35;;;;;;;;;;;;;;;;;;5023512;28;19928;-57
2022/12/25 12:38:01;;;;;;;;;;;;;;;;;;5023347;28;19961;-56
2022/12/25 12:40:27;;;;;;;;;;;;;;;;;;5038276;28;19925;-56
2022/12/25 12:42:53;;;;;;;;;;;;;;;;;;5023956;28;19983;-56
2022/12/25 12:45:19;;;;;;;;;;;;;;;;;;5023669;28;19928;-56
2022/12/25 12:47:45;;;;;;;;;;;;;;;;;;5025718;28;20359;-56
2022/12/25 12:50:11;;;;;;;;;;;;;;;;;;5021334;28;20113;-56
2022/12/25 12:52:37;;;;;;;;;;;;;;;;;;5022723;28;20047;-56
2022/12/25 12:55:03;;;;;;;;;;;;;;;;;;5025450;28;19921;-56
2022/12/25 12:57:31;;;;;;;;;;;;;;;;;;5024734;28;19968;-58
2022/12/25 12:59:57;;;;;;;;;;;;;;;;;;5024156;28;19962;-56
2022/12/25 13:02:24;;;;;;;;;;;;;;;;;;5023859;28;19925;-56
2022/12/25 13:04:50;;;;;;;;;;;;;;;;;;5023522;28;20414;-56
2022/12/25 13:07:16;;;;;;;;;;;;;;;;;;5023003;28;19928;-56
2022/12/25 13:09:42;;;;;;;;;;;;;;;;;;5023245;28;19925;-56
2022/12/25 13:12:08;;;;;;;;;;;;;;;;;;5022399;28;20394;-56
2022/12/25 13:14:34;;;;;;;;;;;;;;;;;;5023114;28;19952;-56
2022/12/25 13:17:00;;;;;;;;;;;;;;;;;;5024322;28;19964;-56
2022/12/25 13:19:26;;;;;;;;;;;;;;;;;;5022051;28;20339;-57
2022/12/25 13:21:53;;;;;;;;;;;;;;;;;;5024327;28;19921;-56
2022/12/25 13:24:18;;;;;;;;;;;;;;;;;;5022108;28;19921;-56
2022/12/25 13:26:44;;;;;;;;;;;;;;;;;;5023647;28;19921;-56
2022/12/25 13:29:10;;;;;;;;;;;;;;;;;;5022856;28;20007;-57
2022/12/25 13:31:36;;;;;;;;;;;;;;;;;;5023881;28;19986;-56
2022/12/25 13:34:02;;;;;;;;;;;;;;;;;;5022912;28;20396;-56
2022/12/25 13:36:28;;;;;;;;;;;;;;;;;;5023566;28;20396;-56
2022/12/25 13:38:54;;;;;;;;;;;;;;;;;;5019975;28;20453;-56
2022/12/25 13:44:05;;;;;;;;;;;;;;;;;;5023153;28;20019;-57
2022/12/25 13:46:31;;;;;;;;;;;;;;;;;;5021831;28;20011;-56
2022/12/25 13:48:57;;;;;;;;;;;;;;;;;;5023679;28;20070;-56
2022/12/25 13:51:23;;;;;;;;;;;;;;;;;;5024441;28;19921;-56
2022/12/25 13:53:49;;;;;;;;;;;;;;;;;;5023346;28;19921;-57
2022/12/25 13:56:15;;;;;;;;;;;;;;;;;;5026775;28;19968;-56
2022/12/25 13:58:41;;;;;;;;;;;;;;;;;;5024287;28;20463;-57
2022/12/25 14:01:07;;;;;;;;;;;;;;;;;;5027291;28;19921;-57
2022/12/25 14:03:33;;;;;;;;;;;;;;;;;;5027270;28;20425;-56
2022/12/25 14:05:59;;;;;;;;;;;;;;;;;;5028126;28;19961;-56
2022/12/25 14:08:25;;;;;;;;;;;;;;;;;;5023974;28;19926;-56
2022/12/25 14:10:51;;;;;;;;;;;;;;;;;;5026919;28;19925;-57
2022/12/25 14:13:17;;;;;;;;;;;;;;;;;;5025264;28;19927;-56
2022/12/25 14:15:43;;;;;;;;;;;;;;;;;;5024918;28;19925;-57
2022/12/25 14:18:09;;;;;;;;;;;;;;;;;;5025520;28;19925;-56
2022/12/25 14:20:35;;;;;;;;;;;;;;;;;;5027187;28;20407;-56
2022/12/25 14:23:01;;;;;;;;;;;;;;;;;;5024956;28;19928;-56
2022/12/25 14:25:28;;;;;;;;;;;;;;;;;;5027455;28;20081;-56
2022/12/25 14:27:54;;;;;;;;;;;;;;;;;;5026360;28;19925;-56
2022/12/25 14:30:20;;;;;;;;;;;;;;;;;;5026856;28;19921;-56
2022/12/25 14:32:46;;;;;;;;;;;;;;;;;;5026354;28;21139;-56
2022/12/25 14:35:12;;;;;;;;;;;;;;;;;;5025859;28;19927;-56
2022/12/25 14:37:37;;;;;;;;;;;;;;;;;;5025742;28;19925;-56
2022/12/25 14:40:04;;;;;;;;;;;;;;;;;;5026965;28;20391;-56
2022/12/25 14:42:29;;;;;;;;;;;;;;;;;;5026075;28;19921;-56
2022/12/25 14:44:55;;;;;;;;;;;;;;;;;;5026440;28;19917;-56
2022/12/25 14:47:21;;;;;;;;;;;;;;;;;;5027180;28;19958;-57
2022/12/25 14:49:47;;;;;;;;;;;;;;;;;;5025713;28;20564;-55
2022/12/25 14:52:13;;;;;;;;;;;;;;;;;;5026814;28;20007;-56
2022/12/25 14:54:39;;;;;;;;;;;;;;;;;;5026338;28;20425;-56
2022/12/25 14:57:05;;;;;;;;;;;;;;;;;;5026238;28;19932;-56
2022/12/25 14:59:31;;;;;;;;;;;;;;;;;;5025567;28;19925;-56
2022/12/25 15:01:57;;;;;;;;;;;;;;;;;;5024402;28;19921;-58
2022/12/25 15:04:23;;;;;;;;;;;;;;;;;;5025844;28;19921;-56
2022/12/25 15:06:49;;;;;;;;;;;;;;;;;;5024652;28;20010;-56
2022/12/25 15:09:15;;;;;;;;;;;;;;;;;;5025937;28;19921;-56
2022/12/25 15:11:41;;;;;;;;;;;;;;;;;;5025388;28;20416;-56
2022/12/25 15:14:07;;;;;;;;;;;;;;;;;;5026686;28;19968;-56
2022/12/25 15:16:33;;;;;;;;;;;;;;;;;;5025121;28;20323;-56
2022/12/25 15:19:00;;;;;;;;;;;;;;;;;;5026287;28;19928;-56
2022/12/25 15:21:26;;;;;;;;;;;;;;;;;;5023908;28;20564;-56
2022/12/25 15:23:52;;;;;;;;;;;;;;;;;;5024916;28;20004;-56
2022/12/25 15:26:18;;;;;;;;;;;;;;;;;;5025854;28;19925;-56
2022/12/25 15:28:44;;;;;;;;;;;;;;;;;;5025556;28;19929;-56
2022/12/25 15:31:09;;;;;;;;;;;;;;;;;;5025129;28;19921;-56
2022/12/25 15:33:35;;;;;;;;;;;;;;;;;;5025597;28;19928;-56
2022/12/25 15:36:01;;;;;;;;;;;;;;;;;;5022499;28;19933;-56
2022/12/25 15:38:27;;;;;;;;;;;;;;;;;;5023917;28;20304;-56
2022/12/25 15:40:53;;;;;;;;;;;;;;;;;;5026076;28;19928;-56
2022/12/25 15:43:19;;;;;;;;;;;;;;;;;;5025379;28;19921;-56
2022/12/25 15:45:45;;;;;;;;;;;;;;;;;;5024351;28;20474;-56
2022/12/25 15:48:11;;;;;;;;;;;;;;;;;;5025895;28;19993;-56
2022/12/25 15:50:38;;;;;;;;;;;;;;;;;;5024464;28;20023;-56
2022/12/25 15:53:04;;;;;;;;;;;;;;;;;;5025827;28;20406;-56
2022/12/25 15:55:30;;;;;;;;;;;;;;;;;;5025201;28;19925;-56
2022/12/25 15:57:56;;;;;;;;;;;;;;;;;;5023752;28;19975;-56
2022/12/25 16:00:24;;;;;;;;;;;;;;;;;;5025578;28;19933;-56
2022/12/25 16:02:50;;;;;;;;;;;;;;;;;;5023974;28;19928;-56
2022/12/25 16:05:16;;;;;;;;;;;;;;;;;;5021942;28;19924;-56
2022/12/25 16:07:42;;;;;;;;;;;;;;;;;;5020735;28;19921;-56
2022/12/25 16:10:08;;;;;;;;;;;;;;;;;;5020464;28;19929;-56
2022/12/25 16:12:34;;;;;;;;;;;;;;;;;;5017387;28;19921;-56
2022/12/25 16:15:00;;;;;;;;;;;;;;;;;;5019729;28;19925;-56
2022/12/25 16:17:26;;;;;;;;;;;;;;;;;;5014358;28;20413;-56
2022/12/25 16:19:52;;;;;;;;;;;;;;;;;;5016697;28;19932;-56
2022/12/25 16:22:18;;;;;;;;;;;;;;;;;;5012213;28;19921;-56
2022/12/25 16:24:43;;;;;;;;;;;;;;;;;;5018623;28;20517;-56
2022/12/25 16:27:09;;;;;;;;;;;;;;;;;;5021912;28;19928;-56
2022/12/25 16:29:35;;;;;;;;;;;;;;;;;;5022342;28;19932;-56
2022/12/25 16:32:01;;;;;;;;;;;;;;;;;;5019404;28;19921;-56
2022/12/25 16:34:27;;;;;;;;;;;;;;;;;;5021604;28;19925;-56
2022/12/25 16:36:55;;;;;;;;;;;;;;;;;;5020921;28;19921;-56
2022/12/25 16:39:21;;;;;;;;;;;;;;;;;;5019765;28;19951;-56
2022/12/25 16:41:46;;;;;;;;;;;;;;;;;;5020444;28;20407;-56
2022/12/25 16:44:13;;;;;;;;;;;;;;;;;;5022543;28;19925;-56
2022/12/25 16:46:39;;;;;;;;;;;;;;;;;;5021103;28;20441;-56
2022/12/25 16:49:05;;;;;;;;;;;;;;;;;;5018927;28;19921;-56
2022/12/25 16:51:31;;;;;;;;;;;;;;;;;;5019903;28;19921;-56
2022/12/25 16:53:57;;;;;;;;;;;;;;;;;;5020787;28;19926;-56
2022/12/25 16:56:25;;;;;;;;;;;;;;;;;;5020986;28;20016;-56
2022/12/25 16:58:51;;;;;;;;;;;;;;;;;;5022910;28;19972;-56
2022/12/25 17:01:17;;;;;;;;;;;;;;;;;;5021469;28;19921;-56
2022/12/25 17:03:43;;;;;;;;;;;;;;;;;;5017666;28;19925;-56
2022/12/25 17:06:09;;;;;;;;;;;;;;;;;;5018555;28;20326;-56
2022/12/25 17:08:35;;;;;;;;;;;;;;;;;;5019132;28;20395;-56
2022/12/25 17:11:01;;;;;;;;;;;;;;;;;;5033455;28;19928;-56
2022/12/25 17:13:27;;;;;;;;;;;;;;;;;;5020080;28;19925;-56
2022/12/25 17:15:53;;;;;;;;;;;;;;;;;;5018429;28;20419;-56
2022/12/25 17:18:20;;;;;;;;;;;;;;;;;;5022111;28;19921;-56
2022/12/25 17:20:46;;;;;;;;;;;;;;;;;;5018990;28;19921;-56
2022/12/25 17:23:12;;;;;;;;;;;;;;;;;;5020302;28;20395;-56
2022/12/25 17:25:38;;;;;;;;;;;;;;;;;;5018328;28;19956;-56
2022/12/25 17:28:04;;;;;;;;;;;;;;;;;;5020716;28;19961;-56
2022/12/25 17:30:30;;;;;;;;;;;;;;;;;;5024223;28;20012;-56
2022/12/25 17:32:56;;;;;;;;;;;;;;;;;;5038869;28;20008;-56
2022/12/25 17:35:23;;;;;;;;;;;;;;;;;;5023440;28;20011;-56
2022/12/25 17:37:49;;;;;;;;;;;;;;;;;;5020851;28;19922;-56
2022/12/25 17:40:15;;;;;;;;;;;;;;;;;;5026177;28;19921;-56
2022/12/25 17:42:41;;;;;;;;;;;;;;;;;;5024115;28;20728;-56
2022/12/25 17:45:07;;;;;;;;;;;;;;;;;;5021680;28;20420;-56
2022/12/25 17:47:33;;;;;;;;;;;;;;;;;;5039035;28;19980;-56
2022/12/25 17:49:59;;;;;;;;;;;;;;;;;;5017793;28;20426;-56
2022/12/25 17:52:25;;;;;;;;;;;;;;;;;;5021687;28;19930;-56
2022/12/25 17:54:51;;;;;;;;;;;;;;;;;;5026028;28;19964;-56
2022/12/25 17:57:17;;;;;;;;;;;;;;;;;;5024549;28;19921;-56
2022/12/25 17:59:42;;;;;;;;;;;;;;;;;;5018576;28;19926;-56
2022/12/25 18:02:08;;;;;;;;;;;;;;;;;;5021374;28;20242;-56
2022/12/25 18:04:34;;;;;;;;;;;;;;;;;;5021760;28;19926;-56
2022/12/25 18:07:02;;;;;;;;;;;;;;;;;;5020871;28;19921;-56
2022/12/25 18:09:28;;;;;;;;;;;;;;;;;;5020728;28;19970;-56
2022/12/25 18:11:53;;;;;;;;;;;;;;;;;;5014865;28;19925;-56
2022/12/25 18:14:19;;;;;;;;;;;;;;;;;;5019273;28;19921;-56
2022/12/25 18:16:45;;;;;;;;;;;;;;;;;;5021319;28;20138;-57
2022/12/25 18:19:11;;;;;;;;;;;;;;;;;;5023529;28;19929;-56
2022/12/25 18:21:37;;;;;;;;;;;;;;;;;;5020365;28;19925;-56